Time;durP1;ratioP1;P1;durP2;ratioP2;P2;SDS_P1;SDS_P2;PMS_P1;PMS_P2;Temp;Humidity;BMP_temperature;BMP_pressure;BME280_temperature;BME280_humidity;BME280_pressure;Samples;Min_cycle;Max_cycle;Signal;HPM_P1;HPM_P2
2023/06/02 00:02:17;;;;;;;12.05;2.33;;;11.00;99.90;;;;;;4972404;28;20101;-76
2023/06/02 00:05:05;;;;;;;20.30;4.88;;;11.00;99.90;;;;;;4971857;28;20097;-77
2023/06/02 00:07:51;;;;;;;15.25;2.40;;;11.00;99.90;;;;;;4954882;28;20061;-77
2023/06/02 00:10:38;;;;;;;21.50;3.58;;;10.90;99.90;;;;;;4971628;28;20050;-78
2023/06/02 00:13:25;;;;;;;12.43;2.60;;;10.90;99.90;;;;;;4972280;28;20047;-79
2023/06/02 00:16:12;;;;;;;10.55;2.30;;;10.90;99.90;;;;;;4971559;28;20051;-78
2023/06/02 00:18:58;;;;;;;16.73;3.60;;;10.90;99.90;;;;;;4956799;28;20055;-77
2023/06/02 00:21:47;;;;;;;18.00;3.13;;;11.00;99.90;;;;;;4954473;28;20051;-78
2023/06/02 00:24:33;;;;;;;19.73;2.85;;;10.90;99.90;;;;;;4971560;28;20117;-76
2023/06/02 00:27:19;;;;;;;17.48;3.45;;;10.90;99.90;;;;;;4954548;28;20158;-77
2023/06/02 00:30:06;;;;;;;15.73;2.88;;;11.00;99.90;;;;;;4972498;28;20109;-76
2023/06/02 00:32:53;;;;;;;24.67;3.75;;;10.90;99.90;;;;;;4971319;28;20542;-76
2023/06/02 00:35:39;;;;;;;9.55;2.25;;;10.90;99.90;;;;;;4941280;28;20054;-77
2023/06/02 00:38:25;;;;;;;11.77;2.80;;;10.90;99.90;;;;;;4971130;28;20450;-77
2023/06/02 00:41:11;;;;;;;16.48;2.40;;;10.90;99.90;;;;;;4972202;28;20406;-76
2023/06/02 00:43:57;;;;;;;14.80;2.65;;;10.90;99.90;;;;;;4958289;28;20059;-75
2023/06/02 00:46:43;;;;;;;14.30;2.25;;;10.80;99.90;;;;;;4958203;28;20069;-76
2023/06/02 00:49:29;;;;;;;16.25;3.30;;;10.80;99.90;;;;;;4961808;28;20047;-78
2023/06/02 00:52:18;;;;;;;19.90;3.22;;;10.80;99.90;;;;;;4975458;28;20193;-77
2023/06/02 00:55:04;;;;;;;18.02;3.10;;;10.80;99.90;;;;;;4975164;28;20042;-80
2023/06/02 00:57:51;;;;;;;18.73;2.72;;;10.80;99.90;;;;;;4956877;28;20426;-78
2023/06/02 01:00:38;;;;;;;21.02;3.55;;;10.90;99.90;;;;;;4975036;28;20046;-78
2023/06/02 01:03:26;;;;;;;27.45;5.07;;;10.90;99.90;;;;;;4975162;28;20051;-76
2023/06/02 01:06:15;;;;;;;19.20;3.33;;;10.90;99.90;;;;;;4961251;28;20141;-77
2023/06/02 01:09:04;;;;;;;20.73;3.50;;;10.90;99.90;;;;;;4975813;28;20047;-76
2023/06/02 01:11:51;;;;;;;17.38;3.10;;;10.90;99.90;;;;;;4975584;28;20774;-78
2023/06/02 01:14:38;;;;;;;18.92;2.90;;;11.00;99.90;;;;;;4961005;28;20577;-79
2023/06/02 01:17:30;;;;;;;13.52;3.13;;;10.90;99.90;;;;;;4974676;28;20061;-79
2023/06/02 01:20:21;;;;;;;16.60;2.70;;;10.90;99.90;;;;;;4974542;28;20056;-78
2023/06/02 01:23:15;;;;;;;23.02;4.22;;;10.90;99.90;;;;;;4975005;28;20502;-78
2023/06/02 01:26:01;;;;;;;26.52;3.20;;;11.00;99.90;;;;;;4960163;28;20043;-79
2023/06/02 01:28:47;;;;;;;24.92;2.60;;;10.90;99.90;;;;;;4961035;28;20093;-78
2023/06/02 01:31:46;;;;;;;13.70;3.42;;;10.90;99.90;;;;;;4974885;28;20076;-78
2023/06/02 01:34:41;;;;;;;12.05;2.92;;;10.90;99.90;;;;;;4943951;28;20061;-78
2023/06/02 01:37:30;;;;;;;22.92;3.15;;;10.90;99.90;;;;;;4974131;28;20055;-78
2023/06/02 01:40:18;;;;;;;23.60;3.20;;;10.90;99.90;;;;;;4956676;28;20043;-79
2023/06/02 01:43:05;;;;;;;12.55;2.53;;;10.90;99.90;;;;;;4958387;28;20515;-78
2023/06/02 01:45:51;;;;;;;23.33;4.50;;;10.90;99.90;;;;;;4959262;28;20067;-78
2023/06/02 01:48:38;;;;;;;15.75;2.85;;;10.90;99.90;;;;;;4957304;28;20086;-79
2023/06/02 01:51:25;;;;;;;18.17;3.78;;;10.90;99.90;;;;;;4973949;28;20065;-80
2023/06/02 01:54:11;;;;;;;21.30;3.33;;;10.90;99.90;;;;;;4956299;28;20062;-78
2023/06/02 01:56:57;;;;;;;18.45;2.92;;;10.90;99.90;;;;;;4974283;28;20055;-77
2023/06/02 01:59:43;;;;;;;17.02;2.72;;;10.90;99.90;;;;;;4974548;28;20056;-78
2023/06/02 02:02:29;;;;;;;19.08;3.42;;;10.80;99.90;;;;;;4956642;28;20050;-78
2023/06/02 02:05:15;;;;;;;22.90;2.85;;;10.80;99.90;;;;;;4957101;28;20059;-77
2023/06/02 02:08:03;;;;;;;19.45;3.50;;;10.80;99.90;;;;;;4973903;28;20463;-79
2023/06/02 02:10:49;;;;;;;22.88;3.17;;;10.80;99.90;;;;;;4956695;28;20466;-79
2023/06/02 02:13:35;;;;;;;15.38;3.13;;;10.80;99.90;;;;;;4973193;28;20055;-78
2023/06/02 02:16:21;;;;;;;22.38;3.47;;;10.80;99.90;;;;;;4973110;28;20047;-80
2023/06/02 02:19:07;;;;;;;28.35;3.55;;;10.80;99.90;;;;;;4972625;28;20577;-78
2023/06/02 02:21:54;;;;;;;21.27;3.50;;;10.80;99.90;;;;;;4943435;28;20050;-79
2023/06/02 02:24:40;;;;;;;19.60;3.33;;;10.80;99.90;;;;;;4959848;28;20451;-79
2023/06/02 02:27:26;;;;;;;12.32;3.20;;;10.80;99.90;;;;;;4942631;28;20058;-76
2023/06/02 02:30:12;;;;;;;19.00;2.70;;;10.80;99.90;;;;;;4974065;28;20055;-77
2023/06/02 02:33:01;;;;;;;18.23;3.63;;;10.90;99.90;;;;;;4973668;28;20050;-78
2023/06/02 02:35:48;;;;;;;30.10;4.05;;;10.90;99.90;;;;;;4973320;28;20050;-79
2023/06/02 02:38:34;;;;;;;15.20;2.63;;;10.90;99.90;;;;;;4958879;28;20105;-79
2023/06/02 02:41:20;;;;;;;12.27;2.63;;;10.90;99.90;;;;;;4973318;28;20407;-78
2023/06/02 02:44:07;;;;;;;22.42;2.70;;;10.90;99.90;;;;;;4959837;28;20047;-77
2023/06/02 02:46:53;;;;;;;15.43;2.92;;;10.90;99.90;;;;;;4973157;28;20046;-78
2023/06/02 02:49:39;;;;;;;19.77;3.55;;;10.90;99.90;;;;;;4973689;28;20058;-79
2023/06/02 02:52:27;;;;;;;20.15;3.38;;;10.90;99.90;;;;;;4973298;28;20063;-79
2023/06/02 02:55:13;;;;;;;23.05;3.38;;;10.90;99.90;;;;;;4973045;28;20055;-79
2023/06/02 02:58:02;;;;;;;26.08;4.47;;;11.00;99.90;;;;;;4955456;28;20058;-79
2023/06/02 03:00:48;;;;;;;26.55;3.67;;;11.00;99.90;;;;;;4972884;28;20080;-80
2023/06/02 03:03:35;;;;;;;19.45;3.53;;;11.00;99.90;;;;;;4972936;28;20051;-79
2023/06/02 03:06:21;;;;;;;19.35;3.30;;;11.00;99.90;;;;;;4972584;28;20047;-79
2023/06/02 03:09:10;;;;;;;21.33;3.53;;;11.00;99.90;;;;;;4973330;28;20051;-79
2023/06/02 03:11:57;;;;;;;26.00;4.38;;;11.00;99.90;;;;;;4972580;28;20185;-80
2023/06/02 03:14:43;;;;;;;22.48;3.60;;;11.00;99.90;;;;;;4955712;28;20055;-80
2023/06/02 03:17:30;;;;;;;14.35;3.20;;;11.10;99.90;;;;;;4972279;28;20062;-79
2023/06/02 03:20:17;;;;;;;14.10;3.00;;;11.10;99.90;;;;;;4971905;28;20061;-79
2023/06/02 03:23:03;;;;;;;13.48;3.47;;;11.10;99.90;;;;;;4955050;28;20410;-79
2023/06/02 03:25:51;;;;;;;24.30;3.58;;;11.10;99.90;;;;;;4955308;28;20100;-79
2023/06/02 03:28:37;;;;;;;18.67;3.55;;;11.10;99.90;;;;;;4972457;28;20053;-76
2023/06/02 03:31:25;;;;;;;14.00;3.22;;;11.10;99.90;;;;;;4972664;28;20042;-78
2023/06/02 03:34:11;;;;;;;24.95;4.28;;;11.20;99.90;;;;;;4972935;28;20054;-79
2023/06/02 03:37:01;;;;;;;24.90;4.15;;;11.20;99.90;;;;;;4971935;28;20065;-78
2023/06/02 03:39:47;;;;;;;17.90;3.97;;;11.20;99.90;;;;;;4972345;28;20778;-77
2023/06/02 03:42:33;;;;;;;16.10;3.60;;;11.20;99.90;;;;;;4971884;28;20050;-77
2023/06/02 03:45:19;;;;;;;15.85;3.55;;;11.20;99.90;;;;;;4955632;28;20062;-77
2023/06/02 03:48:05;;;;;;;19.90;4.88;;;11.30;99.90;;;;;;4941983;28;20054;-77
2023/06/02 03:50:51;;;;;;;20.70;3.65;;;11.30;99.90;;;;;;4972415;28;20546;-79
2023/06/02 03:53:38;;;;;;;18.73;3.72;;;11.30;99.90;;;;;;4971928;28;20541;-77
2023/06/02 03:56:25;;;;;;;20.80;4.18;;;11.30;99.90;;;;;;4954359;28;20121;-77
2023/06/02 03:59:11;;;;;;;20.63;3.67;;;11.30;99.90;;;;;;4955654;28;20514;-77
2023/06/02 04:01:57;;;;;;;15.27;3.50;;;11.30;99.90;;;;;;4972146;28;20050;-77
2023/06/02 04:04:43;;;;;;;18.40;3.40;;;11.40;99.90;;;;;;4972222;28;20054;-77
2023/06/02 04:07:29;;;;;;;20.40;3.70;;;11.40;99.90;;;;;;4954282;28;20096;-78
2023/06/02 04:10:15;;;;;;;19.80;3.92;;;11.40;99.90;;;;;;4972215;28;20051;-77
2023/06/02 04:13:01;;;;;;;18.40;3.28;;;11.40;99.90;;;;;;4955095;28;20166;-78
2023/06/02 04:15:48;;;;;;;26.98;5.57;;;11.40;99.90;;;;;;4973955;28;20046;-78
2023/06/02 04:18:40;;;;;;;19.60;4.57;;;11.40;99.90;;;;;;4974319;28;20078;-77
2023/06/02 04:21:26;;;;;;;19.27;3.70;;;11.40;99.90;;;;;;4956950;28;20051;-77
2023/06/02 04:24:13;;;;;;;20.38;4.30;;;11.50;99.90;;;;;;4956707;28;20527;-77
2023/06/02 04:26:59;;;;;;;31.13;5.25;;;11.50;99.90;;;;;;4938774;29;20146;-77
2023/06/02 04:29:45;;;;;;;21.08;4.47;;;11.50;99.90;;;;;;4938707;29;20376;-78
2023/06/02 04:32:32;;;;;;;20.92;4.28;;;11.50;99.90;;;;;;4955671;28;20109;-79
2023/06/02 04:35:19;;;;;;;19.20;4.03;;;11.60;99.90;;;;;;4956397;28;20069;-78
2023/06/02 04:38:07;;;;;;;18.65;4.25;;;11.60;99.90;;;;;;4956173;28;20062;-78
2023/06/02 04:40:56;;;;;;;23.40;4.25;;;11.60;99.90;;;;;;4956212;28;20051;-75
2023/06/02 04:43:42;;;;;;;21.83;3.75;;;11.60;99.90;;;;;;4941374;29;20055;-77
2023/06/02 04:46:28;;;;;;;23.25;3.75;;;11.60;99.90;;;;;;4955633;28;20137;-78
2023/06/02 04:49:15;;;;;;;23.65;5.07;;;11.70;99.90;;;;;;4941531;29;20047;-76
2023/06/02 04:52:05;;;;;;;24.98;6.13;;;11.70;99.90;;;;;;4950658;29;20143;-77
2023/06/02 04:54:51;;;;;;;24.42;5.78;;;11.70;99.90;;;;;;4955909;28;20139;-78
2023/06/02 04:57:38;;;;;;;20.63;4.75;;;11.70;99.90;;;;;;4954836;29;20059;-77
2023/06/02 05:00:24;;;;;;;25.40;5.03;;;11.80;99.90;;;;;;4955045;28;20067;-78
2023/06/02 05:03:10;;;;;;;21.02;4.38;;;11.80;99.90;;;;;;4955885;28;20043;-77
2023/06/02 05:05:56;;;;;;;25.77;5.70;;;11.80;99.90;;;;;;4956450;28;20773;-78
2023/06/02 05:08:42;;;;;;;24.77;4.70;;;11.80;99.90;;;;;;4953232;29;20057;-78
2023/06/02 05:11:29;;;;;;;29.25;5.55;;;11.90;99.90;;;;;;4955407;28;20404;-78
2023/06/02 05:14:15;;;;;;;26.58;4.65;;;11.90;99.90;;;;;;4955591;28;20043;-80
2023/06/02 05:17:02;;;;;;;20.75;4.18;;;12.00;99.90;;;;;;4954685;28;20062;-78
2023/06/02 05:19:48;;;;;;;22.48;3.65;;;12.00;99.90;;;;;;4954160;28;20086;-77
2023/06/02 05:22:34;;;;;;;23.27;4.50;;;12.10;99.90;;;;;;4955403;28;20043;-77
2023/06/02 05:25:20;;;;;;;19.90;5.32;;;12.00;99.90;;;;;;4954201;28;20101;-78
2023/06/02 05:28:06;;;;;;;27.60;4.45;;;12.10;99.90;;;;;;4952847;28;20141;-77
2023/06/02 05:30:52;;;;;;;24.35;4.65;;;12.10;99.90;;;;;;4955537;28;20147;-77
2023/06/02 05:33:38;;;;;;;26.70;4.95;;;12.20;99.90;;;;;;4954888;28;20047;-79
2023/06/02 05:36:25;;;;;;;21.15;5.30;;;12.20;99.90;;;;;;4952853;29;20235;-78
2023/06/02 05:39:11;;;;;;;37.30;6.68;;;12.30;99.90;;;;;;4937761;29;20051;-77
2023/06/02 05:41:58;;;;;;;21.77;4.85;;;12.40;99.90;;;;;;4955317;28;20130;-77
2023/06/02 05:44:44;;;;;;;22.85;4.05;;;12.40;99.90;;;;;;4954526;28;20059;-77
2023/06/02 05:47:30;;;;;;;16.95;3.80;;;12.50;99.90;;;;;;4954558;28;20055;-77
2023/06/02 05:50:16;;;;;;;25.33;5.47;;;12.60;99.90;;;;;;4954190;29;20210;-78
2023/06/02 05:53:02;;;;;;;25.20;4.88;;;12.70;99.90;;;;;;4953965;29;20126;-78
2023/06/02 05:55:48;;;;;;;22.63;4.00;;;12.80;99.90;;;;;;4954108;29;20057;-78
2023/06/02 05:58:38;;;;;;;28.25;6.25;;;12.90;99.90;;;;;;4954099;28;20066;-77
2023/06/02 06:01:24;;;;;;;21.30;3.83;;;13.00;99.90;;;;;;4937103;29;20051;-78
2023/06/02 06:04:10;;;;;;;23.23;4.22;;;13.00;99.90;;;;;;4953753;28;20487;-77
2023/06/02 06:06:58;;;;;;;27.05;5.82;;;13.10;99.90;;;;;;4953705;29;20610;-76
2023/06/02 06:09:45;;;;;;;24.67;4.32;;;13.30;99.90;;;;;;4953832;28;20098;-78
2023/06/02 06:12:31;;;;;;;20.95;4.78;;;13.30;99.90;;;;;;4954915;28;20145;-78
2023/06/02 06:15:17;;;;;;;21.65;3.80;;;13.40;99.90;;;;;;4953359;29;20115;-78
2023/06/02 06:18:03;;;;;;;22.08;4.22;;;13.50;99.90;;;;;;4936970;28;20516;-78
2023/06/02 06:20:49;;;;;;;26.17;4.30;;;13.60;99.90;;;;;;4953518;28;20057;-77
2023/06/02 06:23:35;;;;;;;30.02;5.93;;;13.70;99.90;;;;;;4953512;28;20059;-78
2023/06/02 06:26:21;;;;;;;19.38;3.80;;;13.80;99.90;;;;;;4953805;28;20102;-78
2023/06/02 06:29:07;;;;;;;25.38;4.57;;;13.90;99.90;;;;;;4954237;28;20058;-78
2023/06/02 06:31:53;;;;;;;29.45;5.28;;;14.20;99.90;;;;;;4951788;29;20066;-78
2023/06/02 06:34:40;;;;;;;28.10;5.40;;;14.30;99.90;;;;;;4953732;28;20047;-78
2023/06/02 06:37:28;;;;;;;23.55;5.43;;;14.30;99.90;;;;;;4953306;29;20098;-77
2023/06/02 06:40:14;;;;;;;29.60;5.57;;;14.40;99.90;;;;;;4952380;28;20460;-78
2023/06/02 06:43:00;;;;;;;24.23;4.38;;;14.70;99.90;;;;;;4953134;29;20051;-78
2023/06/02 06:45:47;;;;;;;18.42;3.88;;;14.90;99.90;;;;;;4954310;28;20059;-78
2023/06/02 06:48:33;;;;;;;24.02;4.32;;;15.10;99.90;;;;;;4954095;28;20133;-77
2023/06/02 06:51:19;;;;;;;21.45;4.13;;;15.00;99.90;;;;;;4952323;28;20061;-77
2023/06/02 06:54:05;;;;;;;21.65;4.88;;;15.10;99.90;;;;;;4953239;28;20051;-77
2023/06/02 06:56:51;;;;;;;25.08;4.00;;;15.20;99.90;;;;;;4953509;28;20051;-79
2023/06/02 06:59:42;;;;;;;31.15;5.45;;;15.30;99.90;;;;;;4953712;28;20059;-78
2023/06/02 07:02:28;;;;;;;37.97;5.50;;;15.40;99.90;;;;;;4952274;28;20074;-78
2023/06/02 07:05:17;;;;;;;20.88;3.95;;;15.50;99.90;;;;;;4952898;29;20517;-78
2023/06/02 07:08:03;;;;;;;21.10;3.70;;;15.60;99.90;;;;;;4953412;28;20050;-78
2023/06/02 07:10:49;;;;;;;20.33;4.03;;;15.70;99.90;;;;;;4953077;28;20055;-79
2023/06/02 07:13:35;;;;;;;15.18;3.83;;;15.90;99.90;;;;;;4952787;28;20066;-79
2023/06/02 07:16:22;;;;;;;20.42;4.07;;;16.10;99.90;;;;;;4952858;28;20380;-78
2023/06/02 07:19:08;;;;;;;24.23;3.45;;;16.20;99.90;;;;;;4952813;28;20125;-78
2023/06/02 07:21:54;;;;;;;16.98;3.75;;;16.20;99.90;;;;;;4953070;28;20047;-79
2023/06/02 07:24:42;;;;;;;20.17;3.67;;;16.40;99.90;;;;;;4950814;29;20048;-78
2023/06/02 07:27:28;;;;;;;24.83;4.30;;;16.40;99.90;;;;;;4950595;29;20570;-78
2023/06/02 07:30:15;;;;;;;14.85;3.35;;;16.50;99.90;;;;;;4953054;28;20051;-78
2023/06/02 07:33:01;;;;;;;23.73;3.45;;;16.60;99.90;;;;;;4936665;28;20051;-79
2023/06/02 07:35:47;;;;;;;20.45;3.13;;;16.80;99.90;;;;;;4952082;29;20118;-78
2023/06/02 07:38:33;;;;;;;19.67;2.88;;;17.00;99.90;;;;;;4952252;28;20051;-78
2023/06/02 07:41:20;;;;;;;24.15;4.25;;;17.10;99.90;;;;;;4935119;29;20402;-78
2023/06/02 07:44:06;;;;;;;11.80;2.95;;;17.40;99.90;;;;;;4952588;28;20051;-78
2023/06/02 07:46:52;;;;;;;13.93;2.72;;;17.60;99.90;;;;;;4935910;29;20114;-79
2023/06/02 07:49:38;;;;;;;22.92;3.75;;;17.70;99.90;;;;;;4953107;28;20055;-80
2023/06/02 07:52:25;;;;;;;11.45;3.38;;;17.80;99.90;;;;;;4953526;28;20114;-79
2023/06/02 07:55:12;;;;;;;13.35;2.78;;;17.90;99.90;;;;;;4952579;29;20047;-79
2023/06/02 07:57:58;;;;;;;14.13;2.85;;;18.00;99.90;;;;;;4952892;28;20147;-79
2023/06/02 08:00:56;;;;;;;11.30;2.20;;;18.00;99.90;;;;;;4952976;29;20066;-79
2023/06/02 08:03:42;;;;;;;14.30;3.00;;;18.10;99.90;;;;;;4953078;28;20051;-77
2023/06/02 08:06:28;;;;;;;14.73;3.83;;;18.00;99.90;;;;;;4953437;28;20079;-78
2023/06/02 08:09:14;;;;;;;16.20;3.33;;;18.00;99.90;;;;;;4951849;29;20117;-79
2023/06/02 08:12:00;;;;;;;12.77;2.13;;;18.10;99.90;;;;;;4936345;28;20043;-79
2023/06/02 08:14:47;;;;;;;10.25;2.55;;;18.30;99.90;;;;;;4936501;29;20497;-78
2023/06/02 08:17:34;;;;;;;12.05;2.40;;;18.40;99.90;;;;;;4938842;28;20106;-79
2023/06/02 08:20:20;;;;;;;8.43;1.70;;;18.50;99.90;;;;;;4952059;28;20082;-78
2023/06/02 08:23:08;;;;;;;9.07;2.53;;;18.70;99.90;;;;;;4963815;28;20047;-79
2023/06/02 08:25:54;;;;;;;13.07;2.65;;;18.80;99.90;;;;;;4959644;29;20051;-78
2023/06/02 08:28:41;;;;;;;8.32;2.05;;;18.90;99.90;;;;;;4957151;28;20117;-78
2023/06/02 08:31:27;;;;;;;10.95;2.60;;;19.00;99.90;;;;;;4955560;28;20055;-78
2023/06/02 08:34:13;;;;;;;10.68;3.17;;;19.00;99.90;;;;;;4955778;28;20055;-77
2023/06/02 08:37:01;;;;;;;8.45;2.22;;;19.20;99.90;;;;;;4940826;29;20062;-77
2023/06/02 08:39:49;;;;;;;8.18;2.15;;;19.30;99.90;;;;;;4943896;29;20062;-77
2023/06/02 08:42:35;;;;;;;6.63;2.17;;;19.40;99.90;;;;;;4952299;28;20729;-78
2023/06/02 08:45:22;;;;;;;12.43;2.33;;;19.40;99.90;;;;;;4952195;29;20051;-79
2023/06/02 08:48:13;;;;;;;14.63;2.58;;;19.50;99.90;;;;;;4952139;28;20054;-78
2023/06/02 08:51:03;;;;;;;14.63;2.25;;;19.50;99.90;;;;;;4951137;29;20528;-78
2023/06/02 08:53:50;;;;;;;9.35;2.03;;;19.60;99.70;;;;;;4952105;28;20055;-78
2023/06/02 08:56:36;;;;;;;10.02;2.28;;;19.70;99.90;;;;;;4952376;28;20142;-78
2023/06/02 08:59:22;;;;;;;11.88;1.85;;;20.00;99.70;;;;;;4952156;28;20499;-78
2023/06/02 09:02:08;;;;;;;9.57;2.05;;;20.00;99.20;;;;;;4952808;28;20456;-78
2023/06/02 09:04:54;;;;;;;11.43;1.90;;;19.90;99.30;;;;;;4955512;29;20043;-78
2023/06/02 09:07:40;;;;;;;8.70;2.25;;;20.10;99.30;;;;;;4937761;29;20059;-79
2023/06/02 09:10:31;;;;;;;9.70;1.83;;;20.20;99.10;;;;;;4938463;29;20499;-78
2023/06/02 09:13:32;;;;;;;9.60;1.77;;;20.30;98.40;;;;;;4954700;28;20643;-78
2023/06/02 09:16:20;;;;;;;15.00;1.73;;;20.40;97.20;;;;;;4955563;28;20047;-78
2023/06/02 09:19:06;;;;;;;10.32;1.67;;;20.20;98.00;;;;;;4955051;28;20088;-78
2023/06/02 09:22:04;;;;;;;8.68;2.15;;;20.30;97.80;;;;;;4954343;29;20051;-78
2023/06/02 09:24:54;;;;;;;12.65;3.13;;;20.20;96.90;;;;;;4938951;29;20062;-78
2023/06/02 09:27:50;;;;;;;12.30;2.28;;;20.40;97.30;;;;;;4954551;29;20043;-78
2023/06/02 09:30:37;;;;;;;9.93;2.25;;;20.50;96.40;;;;;;4954732;29;20515;-78
2023/06/02 09:33:23;;;;;;;9.10;1.70;;;20.70;97.00;;;;;;4955752;28;20051;-78
2023/06/02 09:36:36;;;;;;;9.20;2.03;;;20.90;96.70;;;;;;4955264;29;20471;-77
2023/06/02 09:39:43;;;;;;;10.15;1.55;;;21.10;95.90;;;;;;4941849;28;20055;-78
2023/06/02 09:42:43;;;;;;;7.57;1.65;;;21.20;96.30;;;;;;4955219;28;20054;-79
2023/06/02 09:45:29;;;;;;;9.38;1.70;;;21.30;95.80;;;;;;4955939;28;20070;-76
2023/06/02 09:48:20;;;;;;;10.50;2.15;;;21.20;96.10;;;;;;4959710;28;20145;-78
2023/06/02 09:51:25;;;;;;;9.63;2.22;;;21.30;95.60;;;;;;4948183;28;20855;-78
2023/06/02 09:54:11;;;;;;;5.78;2.00;;;21.50;95.10;;;;;;4955719;28;20051;-78
2023/06/02 09:56:57;;;;;;;13.15;2.00;;;21.50;95.50;;;;;;4955196;28;20051;-77
2023/06/02 09:59:45;;;;;;;5.90;1.67;;;21.60;95.30;;;;;;4952097;29;20051;-78
2023/06/02 10:02:31;;;;;;;8.15;1.95;;;21.40;95.00;;;;;;4954133;29;20059;-78
2023/06/02 10:05:19;;;;;;;12.23;1.65;;;21.30;95.00;;;;;;4940490;28;20051;-78
2023/06/02 10:08:14;;;;;;;9.52;1.60;;;21.40;95.30;;;;;;4952380;29;20133;-78
2023/06/02 10:11:16;;;;;;;;;;;21.50;95.20;;;;;;4954202;29;20051;-79
2023/06/02 10:14:28;;;;;;;8.23;1.92;;;21.50;94.60;;;;;;4954938;28;19926;-79
2023/06/02 10:17:26;;;;;;;7.70;1.60;;;21.60;94.80;;;;;;4936508;29;20059;-78
2023/06/02 10:20:22;;;;;;;7.70;1.75;;;21.80;95.00;;;;;;4940474;28;20153;-77
2023/06/02 10:23:18;;;;;;;9.18;1.40;;;21.90;94.50;;;;;;4958584;29;20102;-79
2023/06/02 10:26:51;;;;;;;15.95;2.90;;;22.10;94.70;;;;;;4953047;29;20062;-79
2023/06/02 10:29:38;;;;;;;9.45;2.08;;;22.20;94.00;;;;;;4867411;29;20116;-78
2023/06/02 10:32:27;;;;;;;10.02;1.60;;;22.20;94.20;;;;;;4954221;28;20094;-79
2023/06/02 10:35:14;;;;;;;5.80;1.60;;;22.40;94.00;;;;;;4954343;28;20118;-76
2023/06/02 10:38:25;;;;;;;9.55;1.48;;;22.40;93.70;;;;;;4954679;28;20096;-78
2023/06/02 10:41:14;;;;;;;6.22;1.63;;;22.80;92.90;;;;;;4954431;28;20709;-78
2023/06/02 10:44:23;;;;;;;8.40;1.92;;;22.80;93.00;;;;;;4954205;28;20138;-78
2023/06/02 10:47:18;;;;;;;6.80;1.38;;;22.80;92.50;;;;;;4953963;29;20431;-79
2023/06/02 10:50:09;;;;;;;6.18;2.25;;;22.60;92.80;;;;;;4952542;29;20059;-79
2023/06/02 10:53:02;;;;;;;7.95;1.75;;;22.70;92.90;;;;;;4954186;28;20074;-78
2023/06/02 10:55:48;;;;;;;6.07;1.42;;;22.50;92.80;;;;;;4939431;29;20062;-79
2023/06/02 10:58:47;;;;;;;5.25;1.48;;;22.40;93.20;;;;;;4954483;28;20547;-78
2023/06/02 11:01:59;;;;;;;7.93;1.77;;;22.60;93.00;;;;;;4953706;28;20090;-76
2023/06/02 11:04:45;;;;;;;8.52;1.77;;;22.90;92.80;;;;;;4953636;28;20451;-78
2023/06/02 11:07:32;;;;;;;10.98;1.50;;;22.90;92.80;;;;;;4953071;29;20061;-77
2023/06/02 11:10:43;;;;;;;3.40;1.20;;;22.80;92.70;;;;;;4953454;28;20055;-78
2023/06/02 11:13:30;;;;;;;17.58;2.00;;;23.10;92.20;;;;;;4953251;29;20511;-78
2023/06/02 11:16:16;;;;;;;7.35;2.10;;;23.10;92.70;;;;;;4952497;28;20093;-77
2023/06/02 11:19:02;;;;;;;7.75;1.70;;;23.00;92.30;;;;;;4952943;28;20492;-78
2023/06/02 11:21:48;;;;;;;6.47;1.75;;;23.00;92.60;;;;;;4952311;29;20402;-78
2023/06/02 11:24:34;;;;;;;6.97;2.28;;;23.00;92.30;;;;;;4951776;28;20051;-77
2023/06/02 11:27:38;;;;;;;8.05;1.80;;;23.10;92.50;;;;;;4953338;28;20078;-77
2023/06/02 11:30:25;;;;;;;7.78;1.92;;;23.50;92.20;;;;;;4955846;28;20044;-77
2023/06/02 11:33:11;;;;;;;9.70;1.98;;;23.50;92.20;;;;;;4954486;28;20515;-78
2023/06/02 11:35:59;;;;;;;10.13;1.65;;;23.50;92.10;;;;;;4953103;29;20474;-77
2023/06/02 11:38:45;;;;;;;6.88;1.77;;;23.60;92.10;;;;;;4952581;28;20569;-77
2023/06/02 11:41:31;;;;;;;10.65;2.88;;;23.80;91.80;;;;;;4951529;29;20133;-77
2023/06/02 11:44:17;;;;;;;8.43;2.35;;;24.10;92.00;;;;;;4951507;29;20051;-77
2023/06/02 11:47:04;;;;;;;8.55;1.92;;;23.80;91.70;;;;;;4953194;28;20051;-78
2023/06/02 11:49:50;;;;;;;11.07;2.05;;;24.00;91.70;;;;;;4952997;28;20070;-77
2023/06/02 11:52:37;;;;;;;7.50;2.30;;;24.20;91.90;;;;;;4951715;29;20051;-77
2023/06/02 11:55:31;;;;;;;5.95;1.63;;;24.20;91.50;;;;;;4952768;28;20130;-77
2023/06/02 11:58:20;;;;;;;6.40;2.13;;;24.20;90.90;;;;;;4952424;28;20066;-78
2023/06/02 12:01:08;;;;;;;7.47;2.00;;;24.10;91.20;;;;;;4952829;28;20055;-77
2023/06/02 12:04:05;;;;;;;12.23;2.05;;;24.30;91.10;;;;;;4952631;28;20170;-78
2023/06/02 12:06:52;;;;;;;8.07;1.63;;;24.40;90.90;;;;;;4953253;28;20051;-77
2023/06/02 12:09:43;;;;;;;11.77;2.17;;;24.50;91.20;;;;;;4958394;28;20118;-77
2023/06/02 12:12:31;;;;;;;7.80;1.95;;;24.90;91.00;;;;;;4952651;28;20063;-78
2023/06/02 12:15:17;;;;;;;6.50;2.10;;;24.90;90.40;;;;;;4952767;28;20058;-77
2023/06/02 12:18:05;;;;;;;7.22;2.00;;;24.70;90.40;;;;;;4951068;29;20055;-78
2023/06/02 12:20:53;;;;;;;5.72;2.10;;;24.80;90.40;;;;;;4952499;28;20508;-78
2023/06/02 12:23:46;;;;;;;7.15;2.20;;;24.90;90.40;;;;;;4951664;29;20047;-78
2023/06/02 12:26:44;;;;;;;10.40;1.85;;;25.10;89.50;;;;;;4952662;28;20062;-78
2023/06/02 12:29:30;;;;;;;7.10;2.17;;;25.10;88.60;;;;;;4951961;28;20058;-77
2023/06/02 12:32:26;;;;;;;10.85;2.75;;;25.30;88.90;;;;;;4939363;29;20400;-77
2023/06/02 12:35:12;;;;;;;6.53;1.70;;;25.20;88.60;;;;;;4936448;29;20080;-77
2023/06/02 12:37:58;;;;;;;8.23;1.70;;;25.40;88.90;;;;;;4939029;29;20051;-77
2023/06/02 12:40:44;;;;;;;7.22;1.63;;;25.70;90.00;;;;;;4956556;28;20052;-77
2023/06/02 12:43:31;;;;;;;6.07;2.20;;;25.80;88.40;;;;;;4955712;28;20047;-78
2023/06/02 12:46:17;;;;;;;16.95;2.28;;;25.80;87.10;;;;;;4956241;28;20525;-77
2023/06/02 12:49:03;;;;;;;10.23;2.03;;;25.80;87.50;;;;;;4955929;29;20423;-78
2023/06/02 12:51:49;;;;;;;7.10;2.08;;;26.20;87.40;;;;;;4956829;28;20043;-78
2023/06/02 12:54:35;;;;;;;14.25;2.15;;;26.00;86.30;;;;;;4956526;28;20141;-78
2023/06/02 12:57:22;;;;;;;8.38;2.20;;;26.20;86.80;;;;;;4959750;28;20055;-78
2023/06/02 13:00:11;;;;;;;7.65;2.15;;;26.00;86.10;;;;;;4956862;29;20047;-77
2023/06/02 13:02:57;;;;;;;8.55;1.95;;;26.20;86.70;;;;;;4954568;28;20066;-78
2023/06/02 13:05:58;;;;;;;7.43;2.00;;;26.30;85.90;;;;;;4956384;28;20047;-77
2023/06/02 13:08:44;;;;;;;13.05;2.70;;;26.40;84.20;;;;;;4955603;28;20066;-78
2023/06/02 13:11:31;;;;;;;11.68;2.58;;;26.60;84.90;;;;;;4955342;28;20107;-78
2023/06/02 13:14:17;;;;;;;11.15;2.30;;;26.70;84.40;;;;;;4955687;28;20044;-78
2023/06/02 13:17:05;;;;;;;9.60;2.17;;;26.60;83.80;;;;;;4955108;28;20137;-76
2023/06/02 13:19:51;;;;;;;8.05;2.03;;;26.70;83.50;;;;;;4954306;28;20063;-77
2023/06/02 13:22:37;;;;;;;10.20;2.28;;;26.90;83.70;;;;;;4954499;29;20055;-77
2023/06/02 13:25:23;;;;;;;7.22;2.00;;;26.70;82.60;;;;;;4954962;28;20526;-77
2023/06/02 13:28:09;;;;;;;9.88;2.38;;;26.40;82.20;;;;;;4955380;28;20047;-77
2023/06/02 13:30:55;;;;;;;12.93;2.85;;;26.30;82.90;;;;;;4940817;29;20095;-78
2023/06/02 13:33:41;;;;;;;7.70;2.78;;;26.50;82.30;;;;;;4955340;28;20138;-78
2023/06/02 13:36:27;;;;;;;8.88;2.42;;;27.10;81.90;;;;;;4953797;29;20055;-78
2023/06/02 13:39:15;;;;;;;7.13;2.25;;;27.50;81.20;;;;;;4952110;29;20153;-78
2023/06/02 13:42:01;;;;;;;15.07;3.55;;;27.80;80.40;;;;;;4954614;28;20047;-78
2023/06/02 13:44:47;;;;;;;5.65;2.00;;;27.70;80.30;;;;;;4954361;29;20058;-78
2023/06/02 13:47:33;;;;;;;13.65;2.95;;;27.90;79.80;;;;;;4953723;28;20145;-78
2023/06/02 13:50:19;;;;;;;9.95;2.10;;;27.70;79.40;;;;;;4955545;28;20407;-78
2023/06/02 13:53:07;;;;;;;12.55;2.67;;;27.80;79.30;;;;;;4954186;29;20058;-77
2023/06/02 13:55:53;;;;;;;8.35;2.50;;;27.90;78.90;;;;;;4955953;28;20134;-77
2023/06/02 13:58:39;;;;;;;11.95;2.83;;;27.90;78.40;;;;;;4957912;28;20113;-78
2023/06/02 14:01:25;;;;;;;10.40;2.75;;;28.00;78.60;;;;;;4955836;28;20055;-79
2023/06/02 14:04:12;;;;;;;8.85;2.72;;;27.80;77.50;;;;;;4955980;28;20101;-78
2023/06/02 14:06:58;;;;;;;8.18;2.58;;;28.00;77.10;;;;;;4954041;29;20049;-79
2023/06/02 14:09:45;;;;;;;10.55;2.63;;;28.10;76.90;;;;;;4952008;29;20087;-78
2023/06/02 14:12:31;;;;;;;8.80;2.78;;;28.50;76.50;;;;;;4953662;28;20118;-79
2023/06/02 14:15:18;;;;;;;8.77;2.53;;;28.50;75.70;;;;;;4953904;29;20055;-78
2023/06/02 14:18:04;;;;;;;6.63;2.25;;;29.10;75.50;;;;;;4954276;28;20050;-78
2023/06/02 14:20:50;;;;;;;9.07;2.40;;;29.50;73.90;;;;;;4940565;28;20411;-77
2023/06/02 14:23:36;;;;;;;8.20;2.20;;;29.70;72.70;;;;;;4954381;28;20055;-78
2023/06/02 14:26:22;;;;;;;10.02;2.35;;;30.10;71.30;;;;;;4953473;28;20054;-79
2023/06/02 14:29:09;;;;;;;13.38;2.97;;;30.10;70.80;;;;;;4954950;28;20130;-78